Home > Products > Valid Products > TAF

000
FTUS41 KGYX 202320
TAFAUG
TAF
KAUG 202320Z 2100/2124 18006KT P6SM BKN040
     FM210900 18003KT 1SM BR OVC004
     FM211300 19004KT 4SM BR OVC005
     FM211800 17006KT 6SM BR OVC015=



000
FTUS41 KGYX 202320
TAFPSM
TAF
KPSM 202320Z 2100/2124 20010KT P6SM BKN035
     FM210600 20005KT 3SM BR BKN006
     FM210800 20004KT 1SM BR OVC002
     FM211300 17005KT 5SM -RA BR OVC005
     FM211500 14007KT P6SM OVC015=



000
FTUS41 KGYX 202320
TAFLEB
TAF
KLEB 202320Z 2100/2124 19011KT P6SM SCT015 BKN035
     FM210500 19006KT 2SM BR OVC015
     FM210700 20006KT 3/4SM BR BKN001
     FM211400 VRB03KT 5SM -RA BR BKN015=



000
FTUS41 KGYX 202320
TAFPWM
TAF
KPWM 202320Z 2100/2124 20007KT P6SM BKN040
     FM210600 20004KT 5SM BR SCT007
     FM210900 17005KT 1 1/2SM BR OVC004
     FM211300 18007KT 5SM BR OVC007
     FM211500 16008KT P6SM OVC015=



000
FTUS41 KGYX 202320
TAFCON
TAF
KCON 202320Z 2100/2124 VRB03KT P6SM BKN030
     FM210600 17005KT 5SM BR BKN015
     FM211200 16003KT 4SM -RA BR OVC007
     FM211500 17008KT P6SM OVC020=



000
FTUS41 KGYX 201735
TAFCON
TAF
KCON 201735Z 2018/2118 VRB03KT P6SM BKN030
     FM210600 17005KT 3SM BR BKN015
     FM211200 16003KT 4SM -RA BR OVC007=



000
FTUS41 KGYX 201735
TAFPWM
TAF
KPWM 201735Z 2018/2118 20012G18KT P6SM BKN040 BKN100
     FM210600 20008KT P6SM BKN025
     FM210900 19003KT 1SM BR BKN006
     FM211300 18010KT 3SM -RA BR OVC005=



000
FTUS41 KGYX 201735
TAFAUG
TAF
KAUG 201735Z 2018/2118 20010G15KT P6SM BKN025
     FM202100 20006KT P6SM BKN100
     FM210700 20004KT 1SM BR BKN004
     FM211300 19004KT 3SM -RA BR OVC008=



000
FTUS41 KGYX 201735
TAFLEB
TAF
KLEB 201735Z 2018/2118 19011KT P6SM SCT015 BKN035
     FM210500 19006KT 1/2SM FG OVC001
     FM211400 VRB03KT 2SM -RA BR BKN008=



000
FTUS41 KGYX 201735
TAFPSM
TAF
KPSM 201735Z 2018/2118 20010KT P6SM BKN035
     FM210600 20005KT 3SM BR BKN006
     FM210800 20004KT 1/2SM FG OVC001
     FM211200 17005KT 3SM -RA BR OVC005=



000
FTUS41 KGYX 201459 AAB
TAFLEB
TAF AMD
KLEB 201459Z 2015/2112 19011KT P6SM BKN015 OVC030
     FM210300 19006KT 4SM BR BKN015
     FM210600 VRB03KT 2SM BR BKN002=



000
FTUS41 KGYX 201457 AAA
TAFPSM
TAF AMD
KPSM 201457Z 2015/2112 20011KT P6SM BKN045
     FM210200 20006KT 5SM BR BKN012
     FM210600 20005KT 3SM BR BKN006=



000
FTUS41 KGYX 201456 AAA
TAFPWM
TAF AMD
KPWM 201456Z 2015/2112 20010G15KT P6SM OVC040
     FM210100 20006KT 5SM BR BKN012
     FM210400 19004KT 3SM BR BKN006=



000
FTUS41 KGYX 201455 AAA
TAFAUG
TAF AMD
KAUG 201455Z 2015/2112 20008G17KT P6SM SCT030 BKN040
     FM202100 20006KT P6SM BKN120
     FM210300 20004KT 2SM BR BKN002
     FM210600 19004KT 1/4SM FG VV001=



000
FTUS41 KGYX 201304 AAA
TAFLEB
TAF AMD
KLEB 201304Z 2013/2112 19009KT P6SM FEW015 BKN025
     FM201430 19009KT P6SM SCT035 BKN200
     FM210300 19006KT 4SM BR BKN025
     FM210600 VRB03KT 2SM BR BKN002=



000
FTUS41 KGYX 201120
TAFAUG
TAF
KAUG 201120Z 2012/2112 19004KT P6SM SCT250
     FM201500 20008G15KT P6SM BKN250
     FM202100 20006KT P6SM BKN120
     FM210300 20004KT 2SM BR BKN002
     FM210600 19004KT 1/4SM FG VV001=



000
FTUS41 KGYX 201120
TAFPSM
TAF
KPSM 201120Z 2012/2112 VRB04KT P6SM SCT050
     FM201400 19011KT P6SM SCT050 BKN200
     FM210200 20006KT 5SM BR BKN012
     FM210600 20005KT 3SM BR BKN006=



000
FTUS41 KGYX 201120
TAFPWM
TAF
KPWM 201120Z 2012/2112 22004KT P6SM SCT250
     FM201400 20011KT P6SM BKN250
     FM210100 20006KT 5SM BR BKN012
     FM210400 19004KT 3SM BR BKN006=



000
FTUS41 KGYX 201120
TAFLEB
TAF
KLEB 201120Z 2012/2112 19009KT P6SM SCT020 BKN035
     FM201400 19009KT P6SM SCT035 BKN200
     FM210300 19006KT 4SM BR BKN025
     FM210600 VRB03KT 2SM BR BKN002=



000
FTUS41 KGYX 201120
TAFCON
TAF
KCON 201120Z 2012/2112 VRB03KT P6SM BKN050
     FM201500 20008KT P6SM SCT050 BKN250
     FM210200 18005KT P6SM BKN035
     FM210600 15005KT 4SM BR BKN015=



000
FTUS41 KGYX 201036 AAB
TAFLEB
TAF AMD
KLEB 201036Z 2011/2106 19009KT P6SM SCT020 BKN035
     FM201400 19009KT P6SM SCT035 BKN200=



000
FTUS41 KGYX 200908 AAA
TAFPSM
TAF AMD
KPSM 200908Z 2009/2106 VRB04KT P6SM FEW250
     FM201400 19011KT P6SM BKN250
     FM210200 20006KT 5SM BR BKN012=



000
FTUS41 KGYX 200908 AAA
TAFAUG
TAF AMD
KAUG 200908Z 2009/2106 20004KT P6SM SCT250
     FM201500 20008G15KT P6SM BKN250
     FM202100 20006KT P6SM BKN120
     FM210300 20004KT 2SM BR BKN002=



000
FTUS41 KGYX 200908 AAA
TAFLEB
TAF AMD
KLEB 200908Z 2009/2106 VRB03KT P6SM BKN020
     FM201400 19009KT P6SM SCT040 BKN200=



000
FTUS41 KGYX 200908 AAA
TAFCON
TAF AMD
KCON 200908Z 2009/2106 00000KT P6SM SCT250
      TEMPO 2009/2011 2SM BR
     FM201500 20008KT P6SM BKN250
     FM210200 28004KT P6SM BKN035=



000
FTUS41 KGYX 200908 AAA
TAFPWM
TAF AMD
KPWM 200908Z 2009/2106 22004KT P6SM FEW250
     FM201400 20011KT P6SM BKN250
     FM210100 20006KT 5SM BR BKN012=



000
FTUS41 KGYX 200521
TAFPSM
TAF
KPSM 200521Z 2006/2106 VRB04KT P6SM FEW250
     FM201400 19011KT P6SM BKN250
     FM210200 20006KT 5SM BR BKN012=



000
FTUS41 KGYX 200521
TAFCON
TAF
KCON 200521Z 2006/2106 00000KT P6SM SCT250
      TEMPO 2009/2011 2SM BR
     FM201500 20008KT P6SM BKN250
     FM210200 28004KT P6SM BKN035=



000
FTUS41 KGYX 200521
TAFPWM
TAF
KPWM 200521Z 2006/2106 20004KT P6SM FEW250
     FM201400 20011KT P6SM BKN250
     FM210100 20006KT 5SM BR BKN012=



000
FTUS41 KGYX 200521
TAFAUG
TAF
KAUG 200521Z 2006/2106 20004KT P6SM SCT250
     FM201500 20008G15KT P6SM BKN250
     FM202100 20006KT P6SM BKN120
     FM210300 20004KT 2SM BR BKN002=



000
FTUS41 KGYX 200521
TAFLEB
TAF
KLEB 200521Z 2006/2106 VRB03KT P6SM SKC
     FM200700 00000KT 1/2SM FG OVC001
     FM201300 19009KT P6SM BKN150=



000
FTUS41 KGYX 192327
TAFAUG
TAF
KAUG 192327Z 2000/2024 20004KT P6SM SKC
     FM201500 20008G15KT P6SM SCT100 BKN250=



000
FTUS41 KGYX 192327
TAFPWM
TAF
KPWM 192327Z 2000/2024 21004KT P6SM SKC
     FM201400 19008G15KT P6SM SCT100 BKN250=



000
FTUS41 KGYX 192327
TAFCON
TAF
KCON 192327Z 2000/2024 VRB03KT P6SM SKC
     FM201500 19008G15KT P6SM SCT100 BKN250=



000
FTUS41 KGYX 192327
TAFLEB
TAF
KLEB 192327Z 2000/2024 19004KT P6SM SKC
     FM200800 00000KT 1/2SM FG OVC001
     FM201300 19004KT P6SM SCT250
     FM201600 19008G15KT P6SM SCT100 BKN250=



000
FTUS41 KGYX 192327
TAFPSM
TAF
KPSM 192327Z 2000/2024 18004KT P6SM SKC
     FM201400 19009G15KT P6SM SCT100 BKN250=



000
FTUS41 KGYX 191754
TAFAUG
TAF
KAUG 191754Z 1918/2018 34009KT P6SM SKC
     FM192100 20004KT P6SM SKC=



000
FTUS41 KGYX 191754
TAFPWM
TAF
KPWM 191754Z 1918/2018 12007KT P6SM SKC
     FM192300 19004KT P6SM SKC=



000
FTUS41 KGYX 191754
TAFLEB
TAF
KLEB 191754Z 1918/2018 VRB03KT P6SM SKC
     FM200800 00000KT 1/2SM FG OVC001
     FM201300 20006KT P6SM SCT050=



000
FTUS41 KGYX 191754
TAFPSM
TAF
KPSM 191754Z 1918/2018 10008KT P6SM FEW050
     FM200000 17004KT P6SM SKC=



000
FTUS41 KGYX 191754
TAFCON
TAF
KCON 191754Z 1918/2018 08005KT P6SM SKC
     FM192100 VRB03KT P6SM SKC=



000
FTUS41 KGYX 191317 AAB
TAFLEB
TAF AMD
KLEB 191317Z 1913/2012 VRB04KT P6SM FEW050
     FM200800 00000KT 2SM BR BKN002=



000
FTUS41 KGYX 191302 AAA
TAFLEB
TAF AMD
KLEB 191302Z 1913/2012 00000KT P6SM BKN001
     FM191400 VRB04KT P6SM FEW050
     FM200800 00000KT 2SM BR BKN002=



000
FTUS41 KGYX 191120
TAFAUG
TAF
KAUG 191120Z 1912/2012 34009KT P6SM SKC
     FM192100 20004KT P6SM SKC=



000
FTUS41 KGYX 191120
TAFPWM
TAF
KPWM 191120Z 1912/2012 36008KT P6SM SKC
     FM191800 15007KT P6SM SKC
     FM192300 19004KT P6SM SKC=



000
FTUS41 KGYX 191120
TAFPSM
TAF
KPSM 191120Z 1912/2012 36008KT P6SM FEW060
     FM191700 12008KT P6SM SKC
     FM200000 17004KT P6SM SKC=



000
FTUS41 KGYX 191120
TAFCON
TAF
KCON 191120Z 1912/2012 35007KT P6SM SKC
     FM192100 VRB03KT P6SM SKC=



000
FTUS41 KGYX 191120
TAFLEB
TAF
KLEB 191120Z 1912/2012 00000KT 1/2SM FG BKN001
      TEMPO 1912/1913 4SM BR SCT001
     FM191300 VRB04KT P6SM FEW050
     FM200800 00000KT 2SM BR BKN002=



000
FTUS41 KGYX 190901 AAA
TAFAUG
TAF AMD
KAUG 190901Z 1909/2006 34009KT P6SM SKC
     FM192100 18004KT P6SM SKC=



000
FTUS41 KGYX 190901 AAA
TAFCON
TAF AMD
KCON 190901Z 1909/2006 VRB03KT P6SM SKC
      TEMPO 1909/1911 2SM BR
     FM191300 35008KT P6SM SKC
     FM192100 VRB03KT P6SM SKC=



000
FTUS41 KGYX 190901 AAA
TAFPWM
TAF AMD
KPWM 190901Z 1909/2006 36008KT P6SM SKC
     FM191800 15007KT P6SM SKC
     FM192300 18004KT P6SM SKC=



000
FTUS41 KGYX 190901 AAA
TAFLEB
TAF AMD
KLEB 190901Z 1909/2006 00000KT 5SM BR BKN001
      TEMPO 1909/1912 1/2SM FG
     FM191300 VRB04KT P6SM SKC=



000
FTUS41 KGYX 190901 AAA
TAFPSM
TAF AMD
KPSM 190901Z 1909/2006 36008KT P6SM SKC
     FM191800 12008KT P6SM SKC
     FM200000 17004KT P6SM SKC=



000
FTUS41 KGYX 190529 CCA
TAFLEB
TAF COR
KLEB 190529Z 1906/2006 00000KT P6SM SKC
     FM190700 00000KT 1/4SM FG VV001
      TEMPO 1912/1913 3SM BR SCT001
     FM191300 VRB04KT P6SM SKC=



000
FTUS41 KGYX 190528
TAFCON
TAF
KCON 190528Z 1906/2006 VRB03KT P6SM SKC
      TEMPO 1909/1911 2SM BR
     FM191300 35008KT P6SM SKC
     FM192100 VRB03KT P6SM SKC=



000
FTUS41 KGYX 190528
TAFAUG
TAF
KAUG 190528Z 1906/2006 35009KT P6SM SKC
     FM192100 18004KT P6SM SKC=



000
FTUS41 KGYX 190528
TAFPWM
TAF
KPWM 190528Z 1906/2006 36008KT P6SM SKC
     FM191800 15007KT P6SM SKC
     FM192300 18004KT P6SM SKC=



000
FTUS41 KGYX 190528
TAFLEB
TAF
KLEB 190528Z 1906/2006 00000KT P6SM OVC035
     FM190700 00000KT 1/4SM FG VV001
      TEMPO 1912/1913 3SM BR SCT001
     FM191300 VRB04KT P6SM SKC=



000
FTUS41 KGYX 190528
TAFPSM
TAF
KPSM 190528Z 1906/2006 36008KT P6SM SKC
     FM191800 12008KT P6SM SKC
     FM200000 17004KT P6SM SKC=



000
FTUS41 KGYX 182320
TAFPWM
TAF
KPWM 182320Z 1900/1924 34008KT P6SM SKC
     FM191800 14007KT P6SM SKC=



000
FTUS41 KGYX 182320
TAFCON
TAF
KCON 182320Z 1900/1924 33004KT P6SM SKC=



000
FTUS41 KGYX 182320
TAFPSM
TAF
KPSM 182320Z 1900/1924 36006KT P6SM SKC=



000
FTUS41 KGYX 182320
TAFAUG
TAF
KAUG 182320Z 1900/1924 34007KT P6SM SKC
     FM191800 17004KT P6SM SKC=



000
FTUS41 KGYX 182320
TAFLEB
TAF
KLEB 182320Z 1900/1924 34006KT P6SM OVC035
     FM190500 00000KT 1/4SM FG VV001
     FM191400 16004KT P6SM SKC=



000
FTUS41 KGYX 181722
TAFPSM
TAF
KPSM 181722Z 1818/1918 31010KT P6SM SCT060
     FM190000 34009KT P6SM SKC=



000
FTUS41 KGYX 181722
TAFLEB
TAF
KLEB 181722Z 1818/1918 34007KT P6SM SCT030 BKN040 BKN070
     FM190000 00000KT P6SM SKC
     FM190400 00000KT 1/4SM FG VV001
     FM191400 01005KT P6SM SKC=



000
FTUS41 KGYX 181722
TAFPWM
TAF
KPWM 181722Z 1818/1918 31008KT P6SM SCT060
     FM190000 34010KT P6SM SKC=



000
FTUS41 KGYX 181722
TAFAUG
TAF
KAUG 181722Z 1818/1918 32008G16KT P6SM SCT060
     FM190000 34009KT P6SM SKC=



000
FTUS41 KGYX 181722
TAFCON
TAF
KCON 181722Z 1818/1918 32008G15KT P6SM FEW060 SCT100
     FM190000 35004KT P6SM SKC=



000
FTUS41 KGYX 181253 AAA
TAFCON
TAF AMD
KCON 181253Z 1813/1912 00000KT P6SM SCT002
     FM181300 31005KT P6SM FEW060 SCT100
     FM181500 32008KT P6SM SCT060 BKN100
     FM190000 36005KT P6SM SKC=



000
FTUS41 KGYX 181252 AAA
TAFAUG
TAF AMD
KAUG 181252Z 1813/1912 00000KT P6SM SCT001
     FM181300 30005KT P6SM FEW060 SCT100
     FM181600 33009KT P6SM SCT060 BKN100
     FM190000 35009KT P6SM SKC=



000
FTUS41 KGYX 181131
TAFPWM
TAF
KPWM 181131Z 1812/1912 24007KT P6SM SKC
     FM181400 30007KT P6SM FEW060 SCT100
     FM181600 32009KT P6SM SCT060 BKN100
     FM190000 35009KT P6SM SKC=



000
FTUS41 KGYX 181131
TAFLEB
TAF
KLEB 181131Z 1812/1912 00000KT 1/2SM FG OVC001
     FM181400 32005KT P6SM BKN060 BKN080
     FM182100 34007KT P6SM SCT060 SCT100
     FM190000 VRB03KT P6SM SKC=



000
FTUS41 KGYX 181131
TAFAUG
TAF
KAUG 181131Z 1812/1912 00000KT 1/4SM FG VV001
     FM181330 30005KT P6SM FEW060 SCT100
     FM181600 33009KT P6SM SCT060 BKN100
     FM190000 35009KT P6SM SKC=



000
FTUS41 KGYX 181131
TAFCON
TAF
KCON 181131Z 1812/1912 00000KT 1SM BR BKN001
     FM181300 31005KT P6SM FEW060 SCT100
     FM181500 32008KT P6SM SCT060 BKN100
     FM190000 36005KT P6SM SKC=



000
FTUS41 KGYX 181131
TAFPSM
TAF
KPSM 181131Z 1812/1912 VRB03KT P6SM SKC
     FM181300 31007KT P6SM FEW060 SCT100
     FM181700 32008KT P6SM SCT060 BKN100
     FM190000 35009KT P6SM SKC=



000
FTUS41 KGYX 180921 AAA
TAFCON
TAF AMD
KCON 180921Z 1809/1906 00000KT 1/4SM FG BKN001
     FM181300 31005KT P6SM FEW060 SCT100
     FM181500 32008KT P6SM SCT060 BKN100
     FM190000 36005KT P6SM SKC=



000
FTUS41 KGYX 180921 AAA
TAFLEB
TAF AMD
KLEB 180921Z 1809/1906 00000KT 2SM BR SCT002 BKN070 BKN100
     FM181200 32005KT P6SM BKN060 BKN080
     FM182100 34007KT P6SM SCT060 SCT100
     FM190000 VRB03KT P6SM SKC=



000
FTUS41 KGYX 180920 AAA
TAFPSM
TAF AMD
KPSM 180920Z 1809/1906 VRB03KT P6SM SKC
     FM181300 31007KT P6SM FEW060 SCT100
     FM181700 32008KT P6SM SCT060 BKN100
     FM190000 35009KT P6SM SKC=



000
FTUS41 KGYX 180919 AAA
TAFPWM
TAF AMD
KPWM 180919Z 1809/1906 00000KT P6SM SKC
     FM181400 30005KT P6SM FEW060 SCT100
     FM181600 32009KT P6SM SCT060 BKN100
     FM190000 35009KT P6SM SKC=



000
FTUS41 KGYX 180919 AAA
TAFAUG
TAF AMD
KAUG 180919Z 1809/1906 20004KT 1/4SM FG VV001
     FM181200 27003KT 5SM BR BKN003
     FM181300 30005KT P6SM FEW060 SCT100
     FM181600 33009KT P6SM SCT060 BKN100
     FM190000 35009KT P6SM SKC=



000
FTUS41 KGYX 180538
TAFAUG
TAF
KAUG 180538Z 1806/1906 20004KT 1/4SM FG VV001
     FM181200 27003KT 5SM BR BKN003
     FM181300 30005KT P6SM FEW060 SCT100
     FM181600 33009KT P6SM SCT060 BKN100
     FM190000 35009KT P6SM SKC=



000
FTUS41 KGYX 180538
TAFPWM
TAF
KPWM 180538Z 1806/1906 26003KT P6SM SKC
     FM181400 30005KT P6SM FEW060 SCT100
     FM181600 32009KT P6SM SCT060 BKN100
     FM190000 35009KT P6SM SKC=



000
FTUS41 KGYX 180538
TAFCON
TAF
KCON 180538Z 1806/1906 00000KT P6SM SKC
     FM180900 00000KT 1/2SM FG BKN001
     FM181300 31005KT P6SM FEW060 SCT100
     FM181500 32008KT P6SM SCT060 BKN100
     FM190000 36005KT P6SM SKC=



000
FTUS41 KGYX 180538
TAFLEB
TAF
KLEB 180538Z 1806/1906 00000KT 1/4SM FG VV001
     FM180900 00000KT 2SM BR SCT002 BKN070 BKN100
     FM181200 32005KT P6SM BKN060 BKN080
     FM182100 34007KT P6SM SCT060 SCT100
     FM190000 VRB03KT P6SM SKC=



000
FTUS41 KGYX 180538
TAFPSM
TAF
KPSM 180538Z 1806/1906 VRB03KT P6SM SKC
     FM181300 31007KT P6SM FEW060 SCT100
     FM181700 32008KT P6SM SCT060 BKN100
     FM190000 35009KT P6SM SKC=



    US Dept of Commerce
    National Oceanic and Atmospheric Administration
    National Weather Service
    1325 East West Highway
    Silver Spring, MD 20910
    Page Author: NWS Internet Services Team
Disclaimer
Information Quality
Credits
Glossary
Privacy Policy
Freedom of Information Act (FOIA)
About Us
Career Opportunities